Observation data for O'Donnell on 03/10/2018      Previous  Date       Current Mesonet Observations  Soil Data  Daily Summary Page  Observations in Plain Language
KOES 100600Z 03008KT 09/M14 A2983 RMK A01 T00941141  RH  017%=      5-min Rain = 0
KOES 100605Z 04008KT 09/M14 A2983 RMK A01 T00901142  RH  018%=      5-min Rain = 0
KOES 100610Z 04007KT 09/M14 A2983 RMK A01 T00861144  RH  018%=      5-min Rain = 0
KOES 100615Z 05007KT 08/M14 A2983 RMK A01 T00831144  RH  018%=      5-min Rain = 0
KOES 100620Z 05007KT 09/M14 A2983 RMK A01 T00881142  RH  018%=      5-min Rain = 0
KOES 100625Z 03007KT 09/M14 A2983 RMK A01 T00881144  RH  018%=      5-min Rain = 0
KOES 100630Z 04007KT 09/M14 A2983 RMK A01 T00871141  RH  018%=      5-min Rain = 0
KOES 100635Z 04007KT 09/M14 A2983 RMK A01 T00871143  RH  018%=      5-min Rain = 0
KOES 100640Z 05007KT 08/M14 A2983 RMK A01 T00831144  RH  018%=      5-min Rain = 0
KOES 100645Z 04007KT 08/M14 A2983 RMK A01 T00811143  RH  019%=      5-min Rain = 0
KOES 100650Z 05007KT 08/M14 A2983 RMK A01 T00811143  RH  019%=      5-min Rain = 0
KOES 100655Z 05007KT 08/M14 A2983 RMK A01 T00791143  RH  019%=      5-min Rain = 0
KOES 100700Z 04006KT 08/M14 A2983 RMK A01 T00841138  RH  019%=      5-min Rain = 0
KOES 100705Z 05006KT 09/M14 A2983 RMK A01 T00861140  RH  018%=      5-min Rain = 0
KOES 100710Z 05006KT 08/M14 A2983 RMK A01 T00801140  RH  019%=      5-min Rain = 0
KOES 100715Z 05006KT 08/M14 A2983 RMK A01 T00781142  RH  019%=      5-min Rain = 0
KOES 100720Z 07005KT 07/M15 A2983 RMK A01 T00721148  RH  019%=      5-min Rain = 0
KOES 100725Z 06004KT 07/M15 A2983 RMK A01 T00691145  RH  020%=      5-min Rain = 0
KOES 100730Z 06005KT 07/M15 A2983 RMK A01 T00701149  RH  019%=      5-min Rain = 0
KOES 100735Z 06005KT 07/M15 A2983 RMK A01 T00701145  RH  020%=      5-min Rain = 0
KOES 100740Z 07005KT 07/M15 A2983 RMK A01 T00691149  RH  019%=      5-min Rain = 0
KOES 100745Z 08004KT 07/M14 A2983 RMK A01 T00661144  RH  020%=      5-min Rain = 0
KOES 100750Z 09003KT 07/M13 A2983 RMK A01 T00701130  RH  022%=      5-min Rain = 0
KOES 100755Z 08003KT 08/M12 A2983 RMK A01 T00781124  RH  022%=      5-min Rain = 0
KOES 100800Z 09003KT 08/M13 A2983 RMK A01 T00841125  RH  021%=      5-min Rain = 0
KOES 100805Z 11002KT 09/M13 A2983 RMK A01 T00871125  RH  021%=      5-min Rain = 0
KOES 100810Z 14002KT 09/M12 A2983 RMK A01 T00871124  RH  021%=      5-min Rain = 0
KOES 100815Z 14002KT 08/M12 A2983 RMK A01 T00821119  RH  022%=      5-min Rain = 0
KOES 100820Z 14003KT 08/M12 A2983 RMK A01 T00821115  RH  023%=      5-min Rain = 0
KOES 100825Z 11002KT 08/M12 A2982 RMK A01 T00841115  RH  023%=      5-min Rain = 0
KOES 100830Z 12002KT 09/M12 A2982 RMK A01 T00881115  RH  022%=      5-min Rain = 0
KOES 100835Z 15003KT 09/M12 A2982 RMK A01 T00911118  RH  021%=      5-min Rain = 0
KOES 100840Z 15004KT 09/M12 A2982 RMK A01 T00871122  RH  021%=      5-min Rain = 0
KOES 100845Z 15004KT 08/M12 A2981 RMK A01 T00831117  RH  023%=      5-min Rain = 0
KOES 100850Z 15004KT 08/M12 A2981 RMK A01 T00791117  RH  023%=      5-min Rain = 0
KOES 100855Z 15004KT 08/M12 A2981 RMK A01 T00771115  RH  024%=      5-min Rain = 0
KOES 100900Z 17003KT 08/M11 A2981 RMK A01 T00811113  RH  024%=      5-min Rain = 0
KOES 100905Z 18003KT 08/M11 A2981 RMK A01 T00831111  RH  024%=      5-min Rain = 0
KOES 100910Z 18004KT 07/M12 A2981 RMK A01 T00711119  RH  024%=      5-min Rain = 0
KOES 100915Z 19005KT 06/M12 A2981 RMK A01 T00611122  RH  026%=      5-min Rain = 0
KOES 100920Z 19004KT 06/M12 A2981 RMK A01 T00561120  RH  027%=      5-min Rain = 0
KOES 100925Z 19005KT 06/M12 A2981 RMK A01 T00581119  RH  026%=      5-min Rain = 0
KOES 100930Z 19005KT 06/M12 A2981 RMK A01 T00631115  RH  027%=      5-min Rain = 0
KOES 100935Z 19004KT 07/M11 A298 RMK A01 T00701109  RH  027%=      5-min Rain = 0
KOES 100940Z 20004KT 07/M11 A298 RMK A01 T00691114  RH  025%=      5-min Rain = 0
KOES 100945Z 21004KT 06/M12 A298 RMK A01 T00571121  RH  026%=      5-min Rain = 0
KOES 100950Z 22004KT 05/M12 A298 RMK A01 T00491118  RH  028%=      5-min Rain = 0
KOES 100955Z 22004KT 05/M11 A298 RMK A01 T00501114  RH  029%=      5-min Rain = 0
KOES 101000Z 22004KT 06/M12 A298 RMK A01 T00581115  RH  028%=      5-min Rain = 0
KOES 101005Z 23005KT 06/M12 A298 RMK A01 T00621116  RH  026%=      5-min Rain = 0
KOES 101010Z 23005KT 06/M12 A298 RMK A01 T00601119  RH  026%=      5-min Rain = 0
KOES 101015Z 23005KT 05/M12 A298 RMK A01 T00511121  RH  027%=      5-min Rain = 0
KOES 101020Z 24005KT 05/M12 A298 RMK A01 T00451120  RH  029%=      5-min Rain = 0
KOES 101025Z 25005KT 04/M12 A298 RMK A01 T00441119  RH  029%=      5-min Rain = 0
KOES 101030Z 26004KT 05/M12 A298 RMK A01 T00491116  RH  029%=      5-min Rain = 0
KOES 101035Z 27005KT 05/M12 A298 RMK A01 T00521120  RH  028%=      5-min Rain = 0
KOES 101040Z 27005KT 05/M13 A298 RMK A01 T00491129  RH  026%=      5-min Rain = 0
KOES 101045Z 27005KT 04/M13 A298 RMK A01 T00441130  RH  027%=      5-min Rain = 0
KOES 101050Z 27004KT 04/M13 A298 RMK A01 T00431129  RH  027%=      5-min Rain = 0
KOES 101055Z 27004KT 04/M13 A2981 RMK A01 T00421131  RH  027%=      5-min Rain = 0
KOES 101100Z 26005KT 04/M13 A2981 RMK A01 T00421130  RH  027%=      5-min Rain = 0
KOES 101105Z 26005KT 04/M13 A2981 RMK A01 T00421125  RH  028%=      5-min Rain = 0
KOES 101110Z 28005KT 04/M13 A2981 RMK A01 T00421127  RH  028%=      5-min Rain = 0
KOES 101115Z 28007KT 04/M13 A2981 RMK A01 T00431127  RH  028%=      5-min Rain = 0
KOES 101120Z 28008KT 04/M14 A2981 RMK A01 T00401135  RH  026%=      5-min Rain = 0
KOES 101125Z 28009KT 04/M14 A2981 RMK A01 T00391138  RH  026%=      5-min Rain = 0
KOES 101130Z 28009KT 04/M14 A2981 RMK A01 T00391137  RH  026%=      5-min Rain = 0
KOES 101135Z 28010KT 04/M14 A2981 RMK A01 T00391135  RH  027%=      5-min Rain = 0
KOES 101140Z 29010KT 04/M14 A2981 RMK A01 T00401135  RH  026%=      5-min Rain = 0
KOES 101145Z 29009KT 04/M14 A2981 RMK A01 T00411135  RH  026%=      5-min Rain = 0
KOES 101150Z 29010KT 04/M13 A2981 RMK A01 T00401134  RH  026%=      5-min Rain = 0
KOES 101155Z 29009KT 04/M13 A2981 RMK A01 T00401133  RH  027%=      5-min Rain = 0
KOES 101200Z 29009KT 04/M13 A2981 RMK A01 T00401133  RH  027%=      5-min Rain = 0
KOES 101205Z 29010KT 04/M13 A2981 RMK A01 T00401132  RH  027%=      5-min Rain = 0
KOES 101210Z 28009KT 04/M13 A2981 RMK A01 T00401131  RH  027%=      5-min Rain = 0
KOES 101215Z 28005KT 04/M13 A2981 RMK A01 T00391130  RH  028%=      5-min Rain = 0
KOES 101220Z 28005KT 04/M13 A2981 RMK A01 T00391130  RH  028%=      5-min Rain = 0
KOES 101225Z 27004KT 04/M13 A2981 RMK A01 T00371129  RH  028%=      5-min Rain = 0
KOES 101230Z 27004KT 04/M13 A2981 RMK A01 T00371128  RH  029%=      5-min Rain = 0
KOES 101235Z 28005KT 04/M13 A2981 RMK A01 T00361129  RH  029%=      5-min Rain = 0
KOES 101240Z 28005KT 03/M13 A2981 RMK A01 T00331130  RH  029%=      5-min Rain = 0
KOES 101245Z 28007KT 03/M13 A2981 RMK A01 T00321129  RH  029%=      5-min Rain = 0
KOES 101250Z 28008KT 03/M13 A2981 RMK A01 T00331126  RH  030%=      5-min Rain = 0
KOES 101255Z 27007KT 04/M13 A2981 RMK A01 T00361125  RH  030%=      5-min Rain = 0
KOES 101300Z 27006KT 03/M13 A2981 RMK A01 T00341125  RH  030%=      5-min Rain = 0
KOES 101305Z 27005KT 04/M12 A2981 RMK A01 T00361123  RH  030%=      5-min Rain = 0
KOES 101310Z 27006KT 04/M12 A2981 RMK A01 T00351123  RH  030%=      5-min Rain = 0
KOES 101315Z 28009KT 04/M12 A2981 RMK A01 T00371121  RH  030%=      5-min Rain = 0
KOES 101320Z 28009KT 04/M12 A2981 RMK A01 T00401121  RH  030%=      5-min Rain = 0
KOES 101325Z 28008KT 04/M12 A2982 RMK A01 T00401123  RH  029%=      5-min Rain = 0
KOES 101330Z 27005KT 04/M12 A2982 RMK A01 T00361124  RH  030%=      5-min Rain = 0
KOES 101335Z 26005KT 03/M13 A2982 RMK A01 T00321126  RH  030%=      5-min Rain = 0
KOES 101340Z 26005KT 04/M12 A2982 RMK A01 T00351123  RH  030%=      5-min Rain = 0
KOES 101345Z 25005KT 04/M12 A2982 RMK A01 T00371119  RH  031%=      5-min Rain = 0
KOES 101350Z 27005KT 04/M11 A2982 RMK A01 T00421113  RH  031%=      5-min Rain = 0
KOES 101355Z 27006KT 05/M11 A2983 RMK A01 T00531111  RH  029%=      5-min Rain = 0
KOES 101400Z 28007G12KT 06/M11 A2983 RMK A01 T00601109  RH  028%=      5-min Rain = 0
KOES 101405Z 28009KT 07/M11 A2983 RMK A01 T00671106  RH  028%=      5-min Rain = 0
KOES 101410Z 29009KT 07/M11 A2983 RMK A01 T00741105  RH  027%=      5-min Rain = 0
KOES 101415Z 28009KT 08/M10 A2983 RMK A01 T00831102  RH  026%=      5-min Rain = 0
KOES 101420Z 28009KT 09/M10 A2983 RMK A01 T00941100  RH  024%=      5-min Rain = 0
KOES 101425Z 28011KT 10/M10 A2983 RMK A01 T01021100  RH  023%=      5-min Rain = 0
KOES 101430Z 28012KT 11/M10 A2983 RMK A01 T01071100  RH  022%=      5-min Rain = 0
KOES 101435Z 28012KT 11/M10 A2983 RMK A01 T01121102  RH  021%=      5-min Rain = 0
KOES 101440Z 28012KT 12/M10 A2983 RMK A01 T01181103  RH  020%=      5-min Rain = 0
KOES 101445Z 28012KT 12/M10 A2983 RMK A01 T01231104  RH  019%=      5-min Rain = 0
KOES 101450Z 28011KT 13/M10 A2983 RMK A01 T01281102  RH  019%=      5-min Rain = 0
KOES 101455Z 28010KT 13/M10 A2983 RMK A01 T01341104  RH  018%=      5-min Rain = 0
KOES 101500Z 28013KT 14/M11 A2983 RMK A01 T01401106  RH  017%=      5-min Rain = 0
KOES 101505Z 28012KT 15/M11 A2983 RMK A01 T01451105  RH  017%=      5-min Rain = 0
KOES 101510Z 28010KT 15/M10 A2983 RMK A01 T01511102  RH  016%=      5-min Rain = 0
KOES 101515Z 29012KT 16/M11 A2983 RMK A01 T01581105  RH  015%=      5-min Rain = 0
KOES 101520Z 29014KT 17/M11 A2983 RMK A01 T01651110  RH  014%=      5-min Rain = 0
KOES 101525Z 29014KT 17/M11 A2983 RMK A01 T01701112  RH  013%=      5-min Rain = 0
KOES 101530Z 29014KT 18/M11 A2983 RMK A01 T01771112  RH  013%=      5-min Rain = 0
KOES 101535Z 29015KT 18/M11 A2983 RMK A01 T01821111  RH  012%=      5-min Rain = 0
KOES 101540Z 29014KT 19/M11 A2983 RMK A01 T01881111  RH  012%=      5-min Rain = 0
KOES 101545Z 29014KT 20/M11 A2983 RMK A01 T01961112  RH  011%=      5-min Rain = 0
KOES 101550Z 29015KT 20/M12 A2983 RMK A01 T02011115  RH  011%=      5-min Rain = 0
KOES 101555Z 30014KT 21/M12 A2983 RMK A01 T02071115  RH  010%=      5-min Rain = 0
KOES 101600Z 30016KT 21/M13 A2983 RMK A01 T02121127  RH  009%=      5-min Rain = 0
KOES 101605Z 30017KT 22/M13 A2983 RMK A01 T02151130  RH  009%=      5-min Rain = 0
KOES 101610Z 30016KT 22/M13 A2983 RMK A01 T02171129  RH  009%=      5-min Rain = 0
KOES 101615Z 31015KT 22/M13 A2983 RMK A01 T02221132  RH  008%=      5-min Rain = 0
KOES 101620Z 31014KT 22/M13 A2983 RMK A01 T02241131  RH  008%=      5-min Rain = 0
KOES 101625Z 30015KT 23/M13 A2983 RMK A01 T02261131  RH  008%=      5-min Rain = 0
KOES 101630Z 30015KT 23/M13 A2984 RMK A01 T02281133  RH  008%=      5-min Rain = 0
KOES 101635Z 31017KT 23/M14 A2984 RMK A01 T02331138  RH  007%=      5-min Rain = 0
KOES 101640Z 31016KT 23/M14 A2984 RMK A01 T02341136  RH  007%=      5-min Rain = 0
KOES 101645Z 31017KT 24/M14 A2984 RMK A01 T02361139  RH  007%=      5-min Rain = 0
KOES 101650Z 31016KT 24/M14 A2984 RMK A01 T02361140  RH  007%=      5-min Rain = 0
KOES 101655Z 30016KT 24/M14 A2984 RMK A01 T02381139  RH  007%=      5-min Rain = 0
KOES 101700Z 30015G21KT 24/M14 A2984 RMK A01 T02391140  RH  007%=      5-min Rain = 0
KOES 101705Z 31014G19KT 24/M14 A2984 RMK A01 T02401141  RH  007%=      5-min Rain = 0
KOES 101710Z 31016G21KT 25/M14 A2984 RMK A01 T02451142  RH  007%=      5-min Rain = 0
KOES 101715Z 31017KT 25/M14 A2984 RMK A01 T02521143  RH  006%=      5-min Rain = 0
KOES 101720Z 30017G22KT 25/M14 A2984 RMK A01 T02541143  RH  006%=      5-min Rain = 0
KOES 101725Z 31016G21KT 26/M14 A2984 RMK A01 T02561144  RH  006%=      5-min Rain = 0
KOES 101730Z 31015G20KT 26/M15 A2984 RMK A01 T02551147  RH  006%=      5-min Rain = 0
KOES 101735Z 31014G20KT 26/M15 A2984 RMK A01 T02591148  RH  006%=      5-min Rain = 0
KOES 101740Z 31015KT 26/M15 A2984 RMK A01 T02591148  RH  006%=      5-min Rain = 0
KOES 101745Z 31015G21KT 26/M15 A2983 RMK A01 T02591151  RH  006%=      5-min Rain = 0
KOES 101750Z 31016G21KT 26/M15 A2983 RMK A01 T02601153  RH  006%=      5-min Rain = 0
KOES 101755Z 31013G18KT 26/M15 A2983 RMK A01 T02601153  RH  005%=      5-min Rain = 0
KOES 101800Z 31014KT 26/M16 A2983 RMK A01 T02601155  RH  005%=      5-min Rain = 0
KOES 101805Z 31011G17KT 26/M15 A2983 RMK A01 T02641154  RH  005%=      5-min Rain = 0
KOES 101810Z 31014G20KT 26/M15 A2983 RMK A01 T02631154  RH  005%=      5-min Rain = 0
KOES 101815Z 31014KT 26/M15 A2983 RMK A01 T02641152  RH  005%=      5-min Rain = 0
KOES 101820Z 30013G19KT 27/M16 A2983 RMK A01 T02671157  RH  005%=      5-min Rain = 0
KOES 101825Z 29010G16KT 27/M15 A2982 RMK A01 T02691154  RH  005%=      5-min Rain = 0
KOES 101830Z 30013G20KT 27/M16 A2982 RMK A01 T02701156  RH  005%=      5-min Rain = 0
KOES 101835Z 31012G19KT 27/M16 A2982 RMK A01 T02661161  RH  005%=      5-min Rain = 0
KOES 101840Z 32012G17KT 27/M16 A2982 RMK A01 T02671161  RH  005%=      5-min Rain = 0
KOES 101845Z 31012KT 27/M16 A2982 RMK A01 T02701161  RH  005%=      5-min Rain = 0
KOES 101850Z 29017G26KT 28/M17 A2981 RMK A01 T02751165  RH  005%=      5-min Rain = 0
KOES 101855Z 28011KT 28/M17 A2981 RMK A01 T02761167  RH  004%=      5-min Rain = 0
KOES 101900Z 28013KT 28/M16 A2981 RMK A01 T02771163  RH  005%=      5-min Rain = 0
KOES 101905Z 28015G22KT 28/M16 A2981 RMK A01 T02771159  RH  005%=      5-min Rain = 0
KOES 101910Z 31014G20KT 28/M16 A2981 RMK A01 T02751160  RH  005%=      5-min Rain = 0
KOES 101915Z 28014G19KT 27/M16 A298 RMK A01 T02741156  RH  005%=      5-min Rain = 0
KOES 101920Z 28014G19KT 28/M15 A298 RMK A01 T02791152  RH  005%=      5-min Rain = 0
KOES 101925Z 29015G22KT 28/M15 A298 RMK A01 T02791151  RH  005%=      5-min Rain = 0
KOES 101930Z 28012G17KT 28/M15 A2979 RMK A01 T02811151  RH  005%=      5-min Rain = 0
KOES 101935Z 30014G23KT 28/M15 A2979 RMK A01 T02791153  RH  005%=      5-min Rain = 0
KOES 101940Z 30018G26KT 28/M15 A2979 RMK A01 T02801152  RH  005%=      5-min Rain = 0
KOES 101945Z 30016G22KT 28/M15 A2979 RMK A01 T02781152  RH  005%=      5-min Rain = 0
KOES 101950Z 29015G23KT 28/M15 A2978 RMK A01 T02791149  RH  005%=      5-min Rain = 0
KOES 101955Z 31013G23KT 28/M15 A2978 RMK A01 T02781153  RH  005%=      5-min Rain = 0
KOES 102000Z 28016G22KT 28/M15 A2978 RMK A01 T02771149  RH  005%=      5-min Rain = 0
KOES 102005Z 26010G16KT 28/M15 A2977 RMK A01 T02781148  RH  005%=      5-min Rain = 0
KOES 102010Z 29012G18KT 28/M15 A2977 RMK A01 T02811149  RH  005%=      5-min Rain = 0
KOES 102015Z 28013G23KT 28/M15 A2977 RMK A01 T02801147  RH  005%=      5-min Rain = 0
KOES 102020Z 27012G18KT 28/M15 A2977 RMK A01 T02821148  RH  005%=      5-min Rain = 0
KOES 102025Z 25012G19KT 28/M15 A2977 RMK A01 T02831146  RH  005%=      5-min Rain = 0
KOES 102030Z 28018G24KT 28/M15 A2977 RMK A01 T02841147  RH  005%=      5-min Rain = 0
KOES 102035Z 27014G20KT 28/M15 A2977 RMK A01 T02841148  RH  005%=      5-min Rain = 0
KOES 102040Z 27015G20KT 29/M15 A2977 RMK A01 T02851147  RH  005%=      5-min Rain = 0
KOES 102045Z 28012G17KT 28/M15 A2977 RMK A01 T02831147  RH  005%=      5-min Rain = 0
KOES 102050Z 29012G24KT 28/M15 A2977 RMK A01 T02831148  RH  005%=      5-min Rain = 0
KOES 102055Z 28017G25KT 28/M15 A2976 RMK A01 T02831148  RH  005%=      5-min Rain = 0
KOES 102100Z 29013G20KT 28/M15 A2976 RMK A01 T02811149  RH  005%=      5-min Rain = 0
KOES 102105Z 30012G17KT 28/M15 A2976 RMK A01 T02781148  RH  005%=      5-min Rain = 0
KOES 102110Z 30013G21KT 28/M15 A2976 RMK A01 T02801146  RH  005%=      5-min Rain = 0
KOES 102115Z 27011G19KT 28/M15 A2976 RMK A01 T02791146  RH  005%=      5-min Rain = 0
KOES 102120Z 28009G17KT 28/M14 A2976 RMK A01 T02801144  RH  005%=      5-min Rain = 0
KOES 102125Z 29012G19KT 28/M14 A2976 RMK A01 T02831144  RH  005%=      5-min Rain = 0
KOES 102130Z 29016G27KT 28/M14 A2976 RMK A01 T02821143  RH  005%=      5-min Rain = 0
KOES 102135Z 29013G23KT 28/M14 A2976 RMK A01 T02841142  RH  005%=      5-min Rain = 0
KOES 102140Z 30018G23KT 29/M15 A2976 RMK A01 T02851145  RH  005%=      5-min Rain = 0
KOES 102145Z 30014G19KT 28/M15 A2976 RMK A01 T02811145  RH  005%=      5-min Rain = 0
KOES 102150Z 29012KT 28/M14 A2976 RMK A01 T02781143  RH  005%=      5-min Rain = 0
KOES 102155Z 28014G21KT 28/M14 A2976 RMK A01 T02761142  RH  005%=      5-min Rain = 0
KOES 102200Z 28011G16KT 27/M14 A2976 RMK A01 T02741141  RH  006%=      5-min Rain = 0
KOES 102205Z 28012G24KT 28/M14 A2975 RMK A01 T02751141  RH  006%=      5-min Rain = 0
KOES 102210Z 29014G20KT 27/M14 A2975 RMK A01 T02731142  RH  006%=      5-min Rain = 0
KOES 102215Z 28013KT 27/M14 A2975 RMK A01 T02711141  RH  006%=      5-min Rain = 0
KOES 102220Z 27014G19KT 27/M14 A2976 RMK A01 T02721138  RH  006%=      5-min Rain = 0
KOES 102225Z 28013G20KT 27/M14 A2976 RMK A01 T02711139  RH  006%=      5-min Rain = 0
KOES 102230Z 27014KT 27/M14 A2975 RMK A01 T02691138  RH  006%=      5-min Rain = 0
KOES 102235Z 29012G18KT 27/M14 A2976 RMK A01 T02691139  RH  006%=      5-min Rain = 0
KOES 102240Z 28014KT 27/M14 A2976 RMK A01 T02691138  RH  006%=      5-min Rain = 0
KOES 102245Z 27015KT 27/M14 A2976 RMK A01 T02681137  RH  006%=      5-min Rain = 0
KOES 102250Z 26014G19KT 27/M14 A2976 RMK A01 T02651137  RH  006%=      5-min Rain = 0
KOES 102255Z 29014KT 27/M14 A2976 RMK A01 T02661135  RH  006%=      5-min Rain = 0
KOES 102300Z 28012G17KT 27/M13 A2976 RMK A01 T02661134  RH  006%=      5-min Rain = 0
KOES 102305Z 28015KT 27/M13 A2976 RMK A01 T02651133  RH  006%=      5-min Rain = 0
KOES 102310Z 29014KT 26/M13 A2977 RMK A01 T02641133  RH  006%=      5-min Rain = 0
KOES 102315Z 28012KT 26/M13 A2977 RMK A01 T02641132  RH  006%=      5-min Rain = 0
KOES 102320Z 28012KT 26/M13 A2977 RMK A01 T02621132  RH  006%=      5-min Rain = 0
KOES 102325Z 28014KT 26/M13 A2977 RMK A01 T02611127  RH  007%=      5-min Rain = 0
KOES 102330Z 28012KT 26/M13 A2977 RMK A01 T02591126  RH  007%=      5-min Rain = 0
KOES 102335Z 28011KT 26/M13 A2977 RMK A01 T02581126  RH  007%=      5-min Rain = 0
KOES 102340Z 27010KT 26/M12 A2977 RMK A01 T02571124  RH  007%=      5-min Rain = 0
KOES 102345Z 28011KT 26/M13 A2977 RMK A01 T02561126  RH  007%=      5-min Rain = 0
KOES 102350Z 28011KT 26/M12 A2977 RMK A01 T02561123  RH  007%=      5-min Rain = 0
KOES 102355Z 28010KT 26/M12 A2977 RMK A01 T02551122  RH  007%=      5-min Rain = 0
KOES 110000Z 28011KT 25/M12 A2977 RMK A01 T02541123  RH  007%=      5-min Rain = 0
KOES 110005Z 28010KT 25/M12 A2978 RMK A01 T02521122  RH  007%=      5-min Rain = 0
KOES 110010Z 28009KT 25/M12 A2978 RMK A01 T02491121  RH  008%=      5-min Rain = 0
KOES 110015Z 28010KT 25/M12 A2978 RMK A01 T02471120  RH  008%=      5-min Rain = 0
KOES 110020Z 28008KT 25/M12 A2978 RMK A01 T02451119  RH  008%=      5-min Rain = 0
KOES 110025Z 28009KT 24/M12 A2978 RMK A01 T02431121  RH  008%=      5-min Rain = 0
KOES 110030Z 27009KT 24/M12 A2978 RMK A01 T02411122  RH  008%=      5-min Rain = 0
KOES 110035Z 27009KT 24/M12 A2978 RMK A01 T02381122  RH  008%=      5-min Rain = 0
KOES 110040Z 27009KT 24/M12 A2978 RMK A01 T02351124  RH  008%=      5-min Rain = 0
KOES 110045Z 27008KT 23/M13 A2979 RMK A01 T02321125  RH  008%=      5-min Rain = 0
KOES 110050Z 27008KT 23/M13 A2979 RMK A01 T02301126  RH  008%=      5-min Rain = 0
KOES 110055Z 27007KT 23/M13 A2979 RMK A01 T02271126  RH  008%=      5-min Rain = 0
KOES 110100Z 27007KT 22/M13 A2979 RMK A01 T02241127  RH  008%=      5-min Rain = 0
KOES 110105Z 27007KT 22/M13 A2979 RMK A01 T02221128  RH  009%=      5-min Rain = 0
KOES 110110Z 27007KT 22/M13 A2979 RMK A01 T02211128  RH  009%=      5-min Rain = 0
KOES 110115Z 27007KT 22/M13 A2979 RMK A01 T02191128  RH  009%=      5-min Rain = 0
KOES 110120Z 27006KT 22/M13 A2979 RMK A01 T02171128  RH  009%=      5-min Rain = 0
KOES 110125Z 27006KT 22/M13 A2979 RMK A01 T02161128  RH  009%=      5-min Rain = 0
KOES 110130Z 27007KT 21/M13 A2979 RMK A01 T02141129  RH  009%=      5-min Rain = 0
KOES 110135Z 28008KT 21/M13 A298 RMK A01 T02131129  RH  009%=      5-min Rain = 0
KOES 110140Z 28008KT 21/M13 A298 RMK A01 T02131128  RH  009%=      5-min Rain = 0
KOES 110145Z 28007KT 21/M13 A298 RMK A01 T02131128  RH  009%=      5-min Rain = 0
KOES 110150Z 28007KT 21/M13 A298 RMK A01 T02121128  RH  009%=      5-min Rain = 0
KOES 110155Z 28006KT 21/M13 A2981 RMK A01 T02101127  RH  009%=      5-min Rain = 0
KOES 110200Z 28005KT 21/M13 A2981 RMK A01 T02061127  RH  009%=      5-min Rain = 0
KOES 110205Z 28006KT 20/M13 A2981 RMK A01 T02021126  RH  010%=      5-min Rain = 0
KOES 110210Z 28006KT 20/M12 A2981 RMK A01 T01991124  RH  010%=      5-min Rain = 0
KOES 110215Z 25005KT 19/M12 A2981 RMK A01 T01941123  RH  010%=      5-min Rain = 0
KOES 110220Z 24005KT 19/M13 A2982 RMK A01 T01861125  RH  011%=      5-min Rain = 0
KOES 110225Z 23007KT 18/M13 A2982 RMK A01 T01821125  RH  011%=      5-min Rain = 0
KOES 110230Z 24007KT 18/M12 A2982 RMK A01 T01821123  RH  011%=      5-min Rain = 0
KOES 110235Z 24007KT 19/M12 A2982 RMK A01 T01851123  RH  011%=      5-min Rain = 0
KOES 110240Z 24007KT 19/M12 A2982 RMK A01 T01851124  RH  011%=      5-min Rain = 0
KOES 110245Z 25007KT 18/M12 A2983 RMK A01 T01841123  RH  011%=      5-min Rain = 0
KOES 110250Z 24007KT 18/M12 A2983 RMK A01 T01841121  RH  011%=      5-min Rain = 0
KOES 110255Z 24007KT 18/M12 A2983 RMK A01 T01841121  RH  011%=      5-min Rain = 0
KOES 110300Z 24008KT 18/M12 A2983 RMK A01 T01841121  RH  011%=      5-min Rain = 0
KOES 110305Z 25008KT 19/M12 A2983 RMK A01 T01871120  RH  011%=      5-min Rain = 0
KOES 110310Z 25008KT 19/M12 A2983 RMK A01 T01901119  RH  011%=      5-min Rain = 0
KOES 110315Z 25009KT 19/M12 A2984 RMK A01 T01911118  RH  011%=      5-min Rain = 0
KOES 110320Z 25008KT 19/M12 A2984 RMK A01 T01931117  RH  011%=      5-min Rain = 0
KOES 110325Z 25008KT 19/M12 A2984 RMK A01 T01901118  RH  011%=      5-min Rain = 0
KOES 110330Z 25010KT 19/M12 A2984 RMK A01 T01881117  RH  011%=      5-min Rain = 0
KOES 110335Z 25010KT 19/M11 A2984 RMK A01 T01941114  RH  011%=      5-min Rain = 0
KOES 110340Z 25008KT 19/M11 A2984 RMK A01 T01921114  RH  011%=      5-min Rain = 0
KOES 110345Z 25009KT 19/M12 A2984 RMK A01 T01881115  RH  012%=      5-min Rain = 0
KOES 110350Z 26008KT 19/M11 A2984 RMK A01 T01871114  RH  012%=      5-min Rain = 0
KOES 110355Z 26008KT 19/M11 A2985 RMK A01 T01891112  RH  012%=      5-min Rain = 0
KOES 110400Z 26009KT 19/M11 A2985 RMK A01 T01891111  RH  012%=      5-min Rain = 0
KOES 110405Z 26009KT 19/M11 A2984 RMK A01 T01901111  RH  012%=      5-min Rain = 0
KOES 110410Z 26010KT 20/M11 A2984 RMK A01 T01951112  RH  011%=      5-min Rain = 0
KOES 110415Z 26008KT 20/M11 A2985 RMK A01 T01951112  RH  011%=      5-min Rain = 0
KOES 110420Z 26010KT 19/M11 A2985 RMK A01 T01941112  RH  012%=      5-min Rain = 0
KOES 110425Z 27011KT 20/M11 A2985 RMK A01 T01971113  RH  011%=      5-min Rain = 0
KOES 110430Z 27010KT 20/M11 A2985 RMK A01 T01971113  RH  011%=      5-min Rain = 0
KOES 110435Z 27010KT 19/M11 A2985 RMK A01 T01931114  RH  011%=      5-min Rain = 0
KOES 110440Z 27010KT 19/M11 A2986 RMK A01 T01911112  RH  012%=      5-min Rain = 0
KOES 110445Z 28012KT 19/M11 A2986 RMK A01 T01901109  RH  012%=      5-min Rain = 0
KOES 110450Z 28013KT 19/M11 A2986 RMK A01 T01941106  RH  012%=      5-min Rain = 0
KOES 110455Z 28013KT 20/M11 A2986 RMK A01 T01971106  RH  012%=      5-min Rain = 0
KOES 110500Z 28013KT 20/M11 A2986 RMK A01 T01971106  RH  012%=      5-min Rain = 0
KOES 110505Z 29013KT 20/M11 A2986 RMK A01 T01961106  RH  012%=      5-min Rain = 0
KOES 110510Z 30014KT 20/M11 A2986 RMK A01 T01961105  RH  012%=      5-min Rain = 0
KOES 110515Z 30013KT 20/M10 A2986 RMK A01 T01971103  RH  012%=      5-min Rain = 0
KOES 110520Z 30013KT 20/M10 A2987 RMK A01 T01951101  RH  012%=      5-min Rain = 0
KOES 110525Z 32013KT 20/M10 A2987 RMK A01 T01961102  RH  012%=      5-min Rain = 0
KOES 110530Z 33013KT 20/M11 A2987 RMK A01 T01961108  RH  012%=      5-min Rain = 0
KOES 110535Z 33014KT 20/M11 A2987 RMK A01 T01971112  RH  011%=      5-min Rain = 0
KOES 110540Z 34012KT 19/M12 A2988 RMK A01 T01931116  RH  011%=      5-min Rain = 0
KOES 110545Z 35010KT 19/M12 A2988 RMK A01 T01891122  RH  011%=      5-min Rain = 0
KOES 110550Z 31009KT 19/M12 A2988 RMK A01 T01861123  RH  011%=      5-min Rain = 0
KOES 110555Z 33007KT 19/M13 A2988 RMK A01 T01851125  RH  011%=      5-min Rain = 0

Page generated in 0.0156 seconds.